Flight Track Log - Related Links

Times and Time Zones

All times are in EDT time to prevent confusion due to time zone crossing. See the ASQ4283 flight status page for this flight to view local times or setup timezone preferences in your user account.

Time Position Orientation Groundspeed Altitude Reporting Facility
EDT Latitude Longitude Course Direction KTS MPH feet Rate Location/Type
Sat 10:09:00 PM 30.0422 -95.1055 77° East  Level FlightAware Approximate
Sat 10:10:00 PM 30.0616 -95.0291 70° East  Level FlightAware Approximate
Sat 10:11:00 PM 30.0849 -94.9539 70° East  Level FlightAware Approximate
Sat 10:12:00 PM 30.1081 -94.8787 70° East  Level FlightAware Approximate
Sat 10:13:00 PM 30.1312 -94.8034 70° East  Level FlightAware Approximate
Sat 10:14:00 PM 30.1543 -94.7281 70° East  Level FlightAware Approximate
Sat 10:15:00 PM 30.1774 -94.6528 70° East  Level FlightAware Approximate
Sat 10:16:00 PM 30.1799 -94.5742 94° East  Level FlightAware Approximate
Sat 10:17:00 PM 30.1752 -94.4945 94° East  Level FlightAware Approximate
Sat 10:18:00 PM 30.1705 -94.4148 94° East  Level FlightAware Approximate
Sat 10:19:00 PM 30.1662 -94.3351 92° East  Level FlightAware Approximate
Sat 10:20:00 PM 30.1637 -94.2552 92° East  Level FlightAware Approximate
Sat 10:21:00 PM 30.1611 -94.1754 92° East  Level FlightAware Approximate
Sat 10:22:00 PM 30.1584 -94.0956 92° East  Level FlightAware Approximate
Sat 10:23:00 PM 30.1557 -94.0157 92° East  Level FlightAware Approximate
Sat 10:24:00 PM 30.1530 -93.9359 92° East  Level FlightAware Approximate
Sat 10:25:00 PM 30.1502 -93.8561 92° East  Level FlightAware Approximate
Sat 10:26:00 PM 30.1419 -93.7768 97° East  Level FlightAware Approximate
Sat 10:27:00 PM 30.1333 -93.6976 90° East  Level FlightAware Approximate
Sat 10:28:00 PM 30.1334 -93.6177 90° East  Level FlightAware Approximate
Sat 10:29:00 PM 30.1334 -93.5378 90° East  Level FlightAware Approximate
Sat 10:30:00 PM 30.1333 -93.4580 90° East  Level FlightAware Approximate
Sat 10:31:00 PM 30.1291 -93.3787 103° East  Level FlightAware Approximate
Sat 10:32:00 PM 30.1167 -93.3005 90° East  Level FlightAware Approximate
Sat 10:33:00 PM 30.1167 -93.2206 90° East  Level FlightAware Approximate

Login

Don't have an account? Register now (free) for customized features, flight alerts, and more!